Terminal Aerodrome Forecast
Issued by NWS

Home | Current Version | Previous Version | Text Only | Print | Product List | Glossary On
Versions: 1 2 3 4 5 6 7 8 9 10 11 12 13 14 15 16 17 18 19 20 21 22 23
711
FTUS45 KTWC 121720
TAFOLS
TAF
KOLS 121720Z 1218/1318 10007KT P6SM SKC
     FM122100 24007KT P6SM FEW250
     FM130300 07004KT P6SM SCT250=

USA.gov is the U.S. government's official web portal to all federal, state and local government web resources and services.